Time;durP1;ratioP1;P1;durP2;ratioP2;P2;SDS_P1;SDS_P2;PMS_P1;PMS_P2;Temp;Humidity;BMP_temperature;BMP_pressure;BME280_temperature;BME280_humidity;BME280_pressure;Samples;Min_cycle;Max_cycle;Signal;HPM_P1;HPM_P2
2023/09/25 00:00:45;;;;;;;;;;;;;;;12.98;76.36;101081.94;4977518;28;2327;-74
2023/09/25 00:03:37;;;;;;;;;;;;;;;13.00;76.14;101085.25;4974331;28;2235;-74
2023/09/25 00:06:29;;;;;;;;;;;;;;;12.99;76.20;101075.47;4986788;28;2172;-73
2023/09/25 00:09:21;;;;;;;;;;;;;;;12.99;76.20;101066.53;4989043;28;2159;-75
2023/09/25 00:12:16;;;;;;;;;;;;;;;12.99;76.29;101069.22;4975954;28;2163;-73
2023/09/25 00:15:08;;;;;;;;;;;;;;;13.00;76.24;101065.47;4979540;28;2383;-74
2023/09/25 00:17:59;;;;;;;;;;;;;;;13.00;76.18;101046.53;4980923;28;2329;-74
2023/09/25 00:20:52;;;;;;;;;;;;;;;13.00;76.20;101052.81;4976113;28;2371;-74
2023/09/25 00:23:43;;;;;;;;;;;;;;;13.01;76.32;101059.84;4977821;28;2165;-74
2023/09/25 00:26:34;;;;;;;;;;;;;;;13.01;76.24;101045.50;4974825;28;2306;-75
2023/09/25 00:29:27;;;;;;;;;;;;;;;13.01;76.38;101057.16;4980434;28;2446;-75
2023/09/25 00:32:18;;;;;;;;;;;;;;;13.01;76.56;101054.44;4981180;28;2453;-75
2023/09/25 00:35:10;;;;;;;;;;;;;;;13.01;76.50;101045.50;4988956;28;2233;-74
2023/09/25 00:38:03;;;;;;;;;;;;;;;13.01;76.47;101040.09;4975123;28;2184;-75
2023/09/25 00:40:55;;;;;;;;;;;;;;;13.01;76.21;101040.94;4975512;28;2490;-74
2023/09/25 00:43:47;;;;;;;;;;;;;;;13.01;76.36;101032.81;4979499;28;2157;-75
2023/09/25 00:46:39;;;;;;;;;;;;;;;13.01;76.61;101023.88;4982120;28;2347;-76
2023/09/25 00:49:30;;;;;;;;;;;;;;;13.02;76.39;101039.03;4978229;28;2398;-75
2023/09/25 00:52:22;;;;;;;;;;;;;;;13.01;76.47;101032.81;4975431;28;2183;-75
2023/09/25 00:55:14;;;;;;;;;;;;;;;13.02;76.21;101039.03;4974211;28;2435;-73
2023/09/25 00:58:07;;;;;;;;;;;;;;;13.02;76.31;101041.75;4977420;28;2372;-74
2023/09/25 01:00:59;;;;;;;;;;;;;;;13.02;76.33;101022.81;4976802;28;2378;-74
2023/09/25 01:03:51;;;;;;;;;;;;;;;13.02;76.19;101036.34;4980442;28;2220;-75
2023/09/25 01:06:44;;;;;;;;;;;;;;;13.02;76.41;101036.34;4975114;28;2540;-74
2023/09/25 01:09:35;;;;;;;;;;;;;;;13.02;76.31;101034.47;4994037;28;2322;-74
2023/09/25 01:12:27;;;;;;;;;;;;;;;13.03;76.48;101027.16;4976004;28;2399;-74
2023/09/25 01:15:20;;;;;;;;;;;;;;;13.03;76.18;101029.88;4974275;28;2308;-75
2023/09/25 01:18:12;;;;;;;;;;;;;;;13.02;76.28;101023.66;4987256;28;2584;-77
2023/09/25 01:21:04;;;;;;;;;;;;;;;13.03;76.27;101029.88;4979281;28;2076;-74
2023/09/25 01:23:55;;;;;;;;;;;;;;;13.02;76.40;101018.25;4989790;28;2247;-74
2023/09/25 01:26:47;;;;;;;;;;;;;;;13.03;76.34;101021.75;4977441;28;2821;-74
2023/09/25 01:29:38;;;;;;;;;;;;;;;13.03;76.23;101037.97;4974685;28;2627;-75
2023/09/25 01:32:31;;;;;;;;;;;;;;;13.03;76.31;101030.72;4989919;28;2276;-74
2023/09/25 01:35:25;;;;;;;;;;;;;;;13.02;76.25;101029.06;4979148;28;2323;-74
2023/09/25 01:38:16;;;;;;;;;;;;;;;13.03;76.32;101022.63;4977304;28;2675;-73
2023/09/25 01:41:09;;;;;;;;;;;;;;;13.02;76.28;101012.84;4974532;28;2307;-73
2023/09/25 01:44:00;;;;;;;;;;;;;;;13.03;76.43;101013.66;4972777;28;2593;-74
2023/09/25 01:46:52;;;;;;;;;;;;;;;13.03;76.31;101009.09;4974578;28;2248;-74
2023/09/25 01:49:44;;;;;;;;;;;;;;;13.03;76.41;101011.78;4997700;28;2386;-74
2023/09/25 01:52:36;;;;;;;;;;;;;;;13.04;76.56;101004.50;5009511;28;2140;-73
2023/09/25 01:55:28;;;;;;;;;;;;;;;13.04;76.39;100988.28;4999226;28;1795;-74
2023/09/25 01:58:20;;;;;;;;;;;;;;;13.03;76.43;100990.16;4997626;28;2132;-74
2023/09/25 02:01:11;;;;;;;;;;;;;;;13.04;76.59;100985.59;4989667;28;2262;-74
2023/09/25 02:04:04;;;;;;;;;;;;;;;13.03;76.28;100987.47;4986495;28;2393;-75
2023/09/25 02:06:55;;;;;;;;;;;;;;;13.04;76.41;100991.00;4976474;28;2217;-75
2023/09/25 02:09:48;;;;;;;;;;;;;;;13.05;76.40;100981.81;4975813;28;2430;-74
2023/09/25 02:12:39;;;;;;;;;;;;;;;13.04;76.47;100972.06;4982488;28;2643;-74
2023/09/25 02:15:31;;;;;;;;;;;;;;;13.04;76.34;100974.75;4987439;28;2145;-75
2023/09/25 02:18:23;;;;;;;;;;;;;;;13.04;76.40;100974.75;4973273;28;2277;-74
2023/09/25 02:21:16;;;;;;;;;;;;;;;13.04;76.35;100972.88;4975759;28;2227;-73
2023/09/25 02:24:08;;;;;;;;;;;;;;;13.05;76.32;100984.50;4972659;28;2624;-74
2023/09/25 02:27:00;;;;;;;;;;;;;;;13.03;76.54;100973.94;4980509;28;2301;-74
2023/09/25 02:29:52;;;;;;;;;;;;;;;13.05;76.44;100971.00;4993120;28;2268;-75
2023/09/25 02:32:44;;;;;;;;;;;;;;;13.05;76.43;100982.63;4973170;28;2229;-74
2023/09/25 02:35:36;;;;;;;;;;;;;;;13.05;76.33;100971.00;4979730;28;2311;-74
2023/09/25 02:38:29;;;;;;;;;;;;;;;13.05;76.35;100969.13;4990248;28;2250;-74
2023/09/25 02:41:21;;;;;;;;;;;;;;;13.05;76.25;100979.09;4979913;28;2379;-74
2023/09/25 02:44:13;;;;;;;;;;;;;;;13.05;76.39;100973.69;4972650;28;2299;-73
2023/09/25 02:47:05;;;;;;;;;;;;;;;13.04;76.37;100972.88;4973526;28;2226;-73
2023/09/25 02:49:57;;;;;;;;;;;;;;;13.05;76.51;100971.00;4978202;28;2431;-74
2023/09/25 02:52:49;;;;;;;;;;;;;;;13.05;76.62;100979.94;4980618;28;2154;-73
2023/09/25 02:55:41;;;;;;;;;;;;;;;13.05;76.66;100969.13;4988120;28;2123;-75
2023/09/25 02:58:35;;;;;;;;;;;;;;;13.05;76.36;100971.00;4975878;28;2183;-76
2023/09/25 03:01:27;;;;;;;;;;;;;;;13.05;76.40;100960.19;4970963;28;2489;-75
2023/09/25 03:04:19;;;;;;;;;;;;;;;13.04;76.34;100962.06;4978293;28;2636;-75
2023/09/25 03:07:11;;;;;;;;;;;;;;;13.04;76.53;100964.78;4979302;28;2371;-76
2023/09/25 03:10:03;;;;;;;;;;;;;;;13.05;76.68;100960.19;4980798;28;2407;-75
2023/09/25 03:12:55;;;;;;;;;;;;;;;13.05;76.38;100966.41;4985701;28;2490;-73
2023/09/25 03:15:46;;;;;;;;;;;;;;;13.05;76.45;100962.88;4986655;28;2339;-74
2023/09/25 03:18:39;;;;;;;;;;;;;;;13.05;76.57;100963.72;4973085;28;2273;-73
2023/09/25 03:21:31;;;;;;;;;;;;;;;13.05;76.50;100961.00;4975849;28;2485;-74
2023/09/25 03:24:23;;;;;;;;;;;;;;;13.06;76.63;100959.13;4978540;28;2344;-73
2023/09/25 03:27:15;;;;;;;;;;;;;;;13.05;76.36;100961.00;4976015;28;2648;-74
2023/09/25 03:30:07;;;;;;;;;;;;;;;13.05;76.49;100957.47;4971044;28;2170;-75
2023/09/25 03:32:59;;;;;;;;;;;;;;;13.06;76.39;100946.44;4976035;28;2319;-74
2023/09/25 03:35:51;;;;;;;;;;;;;;;13.06;76.50;100961.81;4973175;28;2399;-73
2023/09/25 03:38:43;;;;;;;;;;;;;;;13.06;76.49;100961.81;4972306;28;2648;-75
2023/09/25 03:41:35;;;;;;;;;;;;;;;13.05;76.61;100974.53;4971130;28;2155;-75
2023/09/25 03:44:27;;;;;;;;;;;;;;;13.06;76.40;100957.28;4973299;28;2172;-74
2023/09/25 03:47:19;;;;;;;;;;;;;;;13.05;76.49;100961.00;4979998;28;2270;-75
2023/09/25 03:50:12;;;;;;;;;;;;;;;13.06;76.34;100969.94;4986917;28;2223;-76
2023/09/25 03:53:03;;;;;;;;;;;;;;;13.05;76.42;100958.31;4981092;28;2356;-73
2023/09/25 03:55:56;;;;;;;;;;;;;;;13.06;76.47;100953.72;4976275;28;2240;-74
2023/09/25 03:58:48;;;;;;;;;;;;;;;13.05;76.34;100952.88;4983607;28;2244;-75
2023/09/25 04:01:40;;;;;;;;;;;;;;;13.05;76.62;100961.00;4983183;28;2368;-74
2023/09/25 04:04:32;;;;;;;;;;;;;;;13.06;76.63;100956.41;4976130;28;2223;-75
2023/09/25 04:07:24;;;;;;;;;;;;;;;13.05;76.70;100944.78;5003190;28;2265;-73
2023/09/25 04:10:16;;;;;;;;;;;;;;;13.05;76.65;100950.19;4975517;28;2450;-74
2023/09/25 04:13:09;;;;;;;;;;;;;;;13.05;76.46;100941.25;5005449;28;2068;-74
2023/09/25 04:16:02;;;;;;;;;;;;;;;13.06;76.60;100948.31;4987307;28;2371;-76
2023/09/25 04:18:53;;;;;;;;;;;;;;;13.06;76.50;100951.00;4981821;28;2917;-74
2023/09/25 04:21:47;;;;;;;;;;;;;;;13.05;76.48;100950.19;4974489;28;2105;-74
2023/09/25 04:24:39;;;;;;;;;;;;;;;13.06;76.47;100949.16;4985146;28;2391;-75
2023/09/25 04:27:31;;;;;;;;;;;;;;;13.06;76.48;100951.00;4978416;28;2364;-75
2023/09/25 04:30:23;;;;;;;;;;;;;;;13.06;76.50;100957.28;4995556;28;2287;-75
2023/09/25 04:33:14;;;;;;;;;;;;;;;13.06;76.49;100956.41;4976262;28;2438;-73
2023/09/25 04:36:09;;;;;;;;;;;;;;;13.06;76.46;100956.41;4977033;28;2264;-76
2023/09/25 04:39:01;;;;;;;;;;;;;;;13.05;76.54;100952.88;4978012;28;2371;-74
2023/09/25 04:41:53;;;;;;;;;;;;;;;13.06;76.60;100954.56;4982075;28;2350;-76
2023/09/25 04:44:45;;;;;;;;;;;;;;;13.06;76.72;100951.00;4978894;28;2202;-76
2023/09/25 04:47:37;;;;;;;;;;;;;;;13.05;76.60;100947.47;4997248;28;2386;-75
2023/09/25 04:50:29;;;;;;;;;;;;;;;13.06;76.48;100938.34;4995547;28;2326;-75
2023/09/25 04:53:21;;;;;;;;;;;;;;;13.05;76.57;100938.56;5000712;28;2012;-74
2023/09/25 04:56:13;;;;;;;;;;;;;;;13.06;76.58;100935.63;5007419;28;1319;-74
2023/09/25 04:59:05;;;;;;;;;;;;;;;13.07;76.55;100928.34;5004572;28;2281;-74
2023/09/25 05:01:57;;;;;;;;;;;;;;;13.05;76.46;100923.16;4993272;28;2387;-73
2023/09/25 05:04:49;;;;;;;;;;;;;;;13.06;76.50;100903.19;4994822;28;2344;-73
2023/09/25 05:07:41;;;;;;;;;;;;;;;13.06;76.49;100905.03;5005842;28;2066;-73
2023/09/25 05:10:33;;;;;;;;;;;;;;;13.06;76.40;100905.91;4992619;28;2079;-74
2023/09/25 05:13:25;;;;;;;;;;;;;;;13.05;76.66;100898.81;4985304;28;2500;-74
2023/09/25 05:16:17;;;;;;;;;;;;;;;13.06;76.48;100899.63;4987909;28;2238;-75
2023/09/25 05:19:09;;;;;;;;;;;;;;;13.05;76.61;100900.69;4994547;28;2162;-73
2023/09/25 05:22:01;;;;;;;;;;;;;;;13.06;76.65;100910.44;4992995;28;2057;-74
2023/09/25 05:24:53;;;;;;;;;;;;;;;13.05;76.52;100898.81;5001527;28;2088;-75
2023/09/25 05:27:45;;;;;;;;;;;;;;;13.05;76.56;100898.81;4996231;28;2131;-74
2023/09/25 05:30:37;;;;;;;;;;;;;;;13.06;76.45;100897.78;4996988;28;2414;-74
2023/09/25 05:33:29;;;;;;;;;;;;;;;13.06;76.46;100899.63;4999299;28;2347;-74
2023/09/25 05:36:21;;;;;;;;;;;;;;;13.07;76.55;100891.31;4997777;28;2195;-74
2023/09/25 05:39:13;;;;;;;;;;;;;;;13.06;76.40;100888.81;4996211;28;1505;-76
2023/09/25 05:42:04;;;;;;;;;;;;;;;13.05;76.50;100882.59;4997509;28;1976;-74
2023/09/25 05:44:56;;;;;;;;;;;;;;;13.05;76.52;100860.97;5004788;28;947;-73
2023/09/25 05:47:47;;;;;;;;;;;;;;;13.06;76.68;100856.38;4997579;28;2316;-73
2023/09/25 05:50:40;;;;;;;;;;;;;;;13.05;76.33;100860.97;4994502;28;3648;-76
2023/09/25 05:53:32;;;;;;;;;;;;;;;13.05;76.57;100858.25;4993408;28;2812;-74
2023/09/25 05:56:24;;;;;;;;;;;;;;;13.06;76.32;100846.41;5005868;28;1475;-73
2023/09/25 05:59:16;;;;;;;;;;;;;;;13.05;76.28;100844.72;4998727;28;2316;-73
2023/09/25 06:02:08;;;;;;;;;;;;;;;13.05;76.33;100860.97;4991545;28;2199;-73
2023/09/25 06:05:00;;;;;;;;;;;;;;;13.06;76.33;100867.19;4989599;28;2295;-73
2023/09/25 06:07:52;;;;;;;;;;;;;;;13.06;76.36;100861.78;4998151;28;2606;-74
2023/09/25 06:10:45;;;;;;;;;;;;;;;13.06;76.51;100865.34;4997381;28;2108;-77
2023/09/25 06:13:36;;;;;;;;;;;;;;;13.05;76.21;100882.59;4999893;28;2124;-73
2023/09/25 06:16:29;;;;;;;;;;;;;;;13.06;76.31;100878.00;4992813;28;2050;-76
2023/09/25 06:19:21;;;;;;;;;;;;;;;13.05;76.39;100871.78;4996985;28;2172;-75
2023/09/25 06:22:13;;;;;;;;;;;;;;;13.06;76.21;100868.03;4988603;28;2070;-75
2023/09/25 06:25:07;;;;;;;;;;;;;;;13.06;76.35;100867.19;4998618;28;1991;-74
2023/09/25 06:27:59;;;;;;;;;;;;;;;13.06;76.46;100864.47;4999331;28;2348;-74
2023/09/25 06:30:51;;;;;;;;;;;;;;;13.06;76.23;100854.50;5000514;28;2606;-73
2023/09/25 06:33:43;;;;;;;;;;;;;;;13.06;76.22;100843.69;5000919;28;2254;-75
2023/09/25 06:36:34;;;;;;;;;;;;;;;13.06;76.34;100862.63;4995344;28;2612;-75
2023/09/25 06:39:26;;;;;;;;;;;;;;;13.05;76.43;100869.06;4993955;28;2079;-74
2023/09/25 06:42:18;;;;;;;;;;;;;;;13.06;76.37;100868.03;4998709;28;2067;-75
2023/09/25 06:45:09;;;;;;;;;;;;;;;13.06;76.34;100859.06;4996239;28;2206;-74
2023/09/25 06:48:01;;;;;;;;;;;;;;;13.07;76.22;100866.16;4998087;28;1598;-74
2023/09/25 06:50:54;;;;;;;;;;;;;;;13.06;76.33;100872.59;5008424;28;2115;-74
2023/09/25 06:53:45;;;;;;;;;;;;;;;13.07;76.32;100869.69;5000716;28;2076;-74
2023/09/25 06:56:38;;;;;;;;;;;;;;;13.06;76.19;100867.19;5008413;28;1548;-74
2023/09/25 06:59:32;;;;;;;;;;;;;;;13.06;76.21;100872.59;5003724;28;2043;-73
2023/09/25 07:02:25;;;;;;;;;;;;;;;13.06;76.42;100870.75;5002037;28;2326;-72
2023/09/25 07:05:17;;;;;;;;;;;;;;;13.05;76.29;100874.47;4990122;28;2274;-74
2023/09/25 07:08:09;;;;;;;;;;;;;;;13.05;76.28;100877.19;4998661;28;2170;-73
2023/09/25 07:11:01;;;;;;;;;;;;;;;13.07;76.17;100887.78;5000465;28;1899;-74
2023/09/25 07:13:53;;;;;;;;;;;;;;;13.06;76.24;100894.22;4997467;28;2053;-74
2023/09/25 07:16:44;;;;;;;;;;;;;;;13.06;76.48;100894.22;4991597;28;1975;-73
2023/09/25 07:19:36;;;;;;;;;;;;;;;13.07;76.23;100891.31;5002770;28;1915;-74
2023/09/25 07:22:28;;;;;;;;;;;;;;;13.06;76.36;100897.78;4995586;28;2141;-75
2023/09/25 07:25:19;;;;;;;;;;;;;;;13.06;76.49;100889.66;4999674;28;1931;-74
2023/09/25 07:28:11;;;;;;;;;;;;;;;13.06;76.51;100889.66;5002788;28;1289;-74
2023/09/25 07:31:03;;;;;;;;;;;;;;;13.07;76.54;100891.31;4994357;28;2384;-75
2023/09/25 07:33:55;;;;;;;;;;;;;;;13.06;76.55;100878.84;4994087;28;2325;-74
2023/09/25 07:36:46;;;;;;;;;;;;;;;13.06;76.43;100884.25;4993660;28;2321;-75
2023/09/25 07:39:40;;;;;;;;;;;;;;;13.07;76.33;100887.78;5002907;28;2082;-76
2023/09/25 07:42:32;;;;;;;;;;;;;;;13.07;76.44;100877.78;4991122;28;1894;-74
2023/09/25 07:45:25;;;;;;;;;;;;;;;13.07;76.40;100879.66;5000863;28;2065;-74
2023/09/25 07:48:17;;;;;;;;;;;;;;;13.07;76.34;100880.50;4999570;28;2775;-74
2023/09/25 07:51:09;;;;;;;;;;;;;;;13.07;76.42;100864.28;4998184;28;2216;-75
2023/09/25 07:54:02;;;;;;;;;;;;;;;13.07;76.66;100863.44;4998928;28;2218;-75
2023/09/25 07:56:53;;;;;;;;;;;;;;;13.08;76.49;100859.69;4994363;28;2123;-75
2023/09/25 07:59:45;;;;;;;;;;;;;;;13.07;76.29;100866.16;5003286;28;2040;-74
2023/09/25 08:02:41;;;;;;;;;;;;;;;13.08;76.76;100865.91;5002033;28;2203;-72
2023/09/25 08:05:32;;;;;;;;;;;;;;;13.07;76.46;100866.97;5000850;28;3231;-75
2023/09/25 08:08:24;;;;;;;;;;;;;;;13.07;76.47;100847.22;4991951;28;2618;-74
2023/09/25 08:11:17;;;;;;;;;;;;;;;13.08;76.35;100873.19;4991387;28;2428;-74
2023/09/25 08:14:09;;;;;;;;;;;;;;;13.07;76.44;100858.88;4984836;28;2623;-75
2023/09/25 08:17:02;;;;;;;;;;;;;;;13.08;76.47;100868.63;4993126;28;2276;-76
2023/09/25 08:19:54;;;;;;;;;;;;;;;13.09;76.38;100880.28;5004555;28;2318;-74
2023/09/25 08:22:46;;;;;;;;;;;;;;;13.08;76.68;100890.25;4986433;28;2173;-77
2023/09/25 08:25:39;;;;;;;;;;;;;;;13.08;76.49;100890.25;4986738;28;2385;-74
2023/09/25 08:28:31;;;;;;;;;;;;;;;13.08;76.47;100882.13;4984530;28;2169;-75
2023/09/25 08:31:22;;;;;;;;;;;;;;;13.08;76.59;100890.25;4989141;28;2235;-73
2023/09/25 08:34:14;;;;;;;;;;;;;;;13.08;76.66;100890.25;5000723;28;2218;-74
2023/09/25 08:37:06;;;;;;;;;;;;;;;13.24;83.47;100874.47;5000926;28;1380;-75
2023/09/25 08:39:57;;;;;;;;;;;;;;;13.15;78.99;100866.66;5005931;28;2053;-78
2023/09/25 08:42:49;;;;;;;;;;;;;;;13.14;78.18;100826.31;5001863;28;2269;-78
2023/09/25 08:45:41;;;;;;;;;;;;;;;13.13;77.46;100795.75;4999378;28;2132;-78
2023/09/25 08:48:33;;;;;;;;;;;;;;;13.14;77.13;100780.34;5001783;28;2245;-78
2023/09/25 08:51:25;;;;;;;;;;;;;;;13.13;77.39;100771.41;4998951;28;1902;-76
2023/09/25 08:54:17;;;;;;;;;;;;;;;13.14;77.13;100761.41;5005269;28;2205;-78
2023/09/25 08:57:09;;;;;;;;;;;;;;;13.14;77.26;100747.88;5004205;28;2001;-75
2023/09/25 09:00:02;;;;;;;;;;;;;;;13.14;76.95;100759.53;4996503;28;2323;-79
2023/09/25 09:02:54;;;;;;;;;;;;;;;13.14;76.85;100767.63;4986631;28;2459;-78
2023/09/25 09:05:46;;;;;;;;;;;;;;;13.15;76.86;100799.06;4986952;28;2426;-77
2023/09/25 09:08:38;;;;;;;;;;;;;;;13.15;76.86;100809.88;5001428;28;1931;-77
2023/09/25 09:11:30;;;;;;;;;;;;;;;13.15;76.78;100817.97;4996112;28;2464;-77
2023/09/25 09:14:22;;;;;;;;;;;;;;;13.15;76.87;100826.09;4996265;28;2394;-75
2023/09/25 09:17:13;;;;;;;;;;;;;;;13.15;76.82;100806.34;4993192;28;2371;-76
2023/09/25 09:20:06;;;;;;;;;;;;;;;13.15;76.98;100809.88;4989044;28;2312;-78
2023/09/25 09:22:58;;;;;;;;;;;;;;;13.16;76.89;100807.97;5002618;28;2297;-77
2023/09/25 09:25:51;;;;;;;;;;;;;;;13.16;77.05;100799.88;5001759;28;2291;-77
2023/09/25 09:28:43;;;;;;;;;;;;;;;13.15;77.03;100774.72;4997900;28;2313;-78
2023/09/25 09:31:35;;;;;;;;;;;;;;;13.16;76.94;100797.16;4993155;28;2497;-78
2023/09/25 09:34:26;;;;;;;;;;;;;;;13.16;77.01;100816.09;4989718;28;2709;-78
2023/09/25 09:37:19;;;;;;;;;;;;;;;13.16;76.77;100783.66;4994453;28;2506;-78
2023/09/25 09:40:11;;;;;;;;;;;;;;;13.15;76.87;100780.13;4998787;28;2500;-78
2023/09/25 09:43:03;;;;;;;;;;;;;;;13.16;76.78;100794.47;4984645;28;3431;-79
2023/09/25 09:45:55;;;;;;;;;;;;;;;13.17;76.68;100788.00;4989861;28;2331;-75
2023/09/25 09:48:48;;;;;;;;;;;;;;;13.16;76.73;100781.75;4996710;28;2448;-76
2023/09/25 09:51:40;;;;;;;;;;;;;;;13.17;76.64;100782.59;5007240;28;2233;-78
2023/09/25 09:54:31;;;;;;;;;;;;;;;13.17;76.72;100801.50;5002483;28;2369;-76
2023/09/25 09:57:23;;;;;;;;;;;;;;;13.17;76.75;100806.91;4999048;28;2265;-77
2023/09/25 10:00:15;;;;;;;;;;;;;;;13.17;76.65;100810.44;5004554;28;2210;-76
2023/09/25 10:03:07;;;;;;;;;;;;;;;13.17;76.68;100790.69;5002592;28;1543;-76
2023/09/25 10:05:59;;;;;;;;;;;;;;;13.18;76.83;100787.78;5005926;28;1027;-77
2023/09/25 10:08:50;;;;;;;;;;;;;;;13.17;76.63;100794.22;4998749;28;1918;-78
2023/09/25 10:11:42;;;;;;;;;;;;;;;13.19;76.58;100805.63;4995183;28;2265;-78
2023/09/25 10:14:34;;;;;;;;;;;;;;;13.19;76.72;100802.13;4997025;28;3438;-78
2023/09/25 10:17:26;;;;;;;;;;;;;;;13.20;76.65;100795.63;5001054;28;2536;-78
2023/09/25 10:20:18;;;;;;;;;;;;;;;13.18;76.63;100805.88;4984480;28;2479;-76
2023/09/25 10:23:10;;;;;;;;;;;;;;;13.18;76.40;100801.28;4989698;28;2632;-77
2023/09/25 10:26:03;;;;;;;;;;;;;;;13.20;76.40;100825.38;4993685;28;2524;-78
2023/09/25 10:28:55;;;;;;;;;;;;;;;13.20;76.81;100795.63;5004263;28;2290;-76
2023/09/25 10:31:47;;;;;;;;;;;;;;;13.19;76.61;100813.75;4996825;28;2179;-75
2023/09/25 10:34:39;;;;;;;;;;;;;;;13.20;76.91;100801.06;4999467;28;2422;-76
2023/09/25 10:37:31;;;;;;;;;;;;;;;13.20;76.64;100822.69;5005155;28;2078;-76
2023/09/25 10:40:23;;;;;;;;;;;;;;;13.19;76.56;100819.16;5010326;28;941;-77
2023/09/25 10:43:15;;;;;;;;;;;;;;;13.21;76.39;100832.47;4982721;28;2238;-76
2023/09/25 10:46:07;;;;;;;;;;;;;;;13.21;76.50;100827.06;4974048;28;2391;-76
2023/09/25 10:48:59;;;;;;;;;;;;;;;13.20;76.88;100817.28;4983096;28;2544;-76
2023/09/25 10:51:51;;;;;;;;;;;;;;;13.22;76.78;100836.00;4999880;28;2207;-76
2023/09/25 10:54:43;;;;;;;;;;;;;;;13.21;76.62;100835.16;4994567;28;2450;-77
2023/09/25 10:57:35;;;;;;;;;;;;;;;13.22;76.53;100838.69;4991512;28;2286;-75
2023/09/25 11:00:27;;;;;;;;;;;;;;;13.21;76.57;100824.34;4992310;28;2205;-76
2023/09/25 11:03:19;;;;;;;;;;;;;;;13.22;76.72;100831.41;4985519;28;2601;-78
2023/09/25 11:06:11;;;;;;;;;;;;;;;13.23;76.51;100835.75;5001570;28;2347;-75
2023/09/25 11:09:03;;;;;;;;;;;;;;;13.23;76.69;100843.84;5005582;28;1488;-77
2023/09/25 11:11:54;;;;;;;;;;;;;;;13.23;76.86;100843.03;4999489;28;2219;-76
2023/09/25 11:14:46;;;;;;;;;;;;;;;13.23;76.62;100840.34;4994590;28;995;-76
2023/09/25 11:17:38;;;;;;;;;;;;;;;13.23;76.50;100843.84;4993146;28;2586;-76
2023/09/25 11:20:30;;;;;;;;;;;;;;;13.24;76.71;100840.13;4999237;28;2446;-76
2023/09/25 11:23:22;;;;;;;;;;;;;;;13.24;76.67;100842.00;4999086;28;2154;-76
2023/09/25 11:26:13;;;;;;;;;;;;;;;13.24;76.71;100840.13;4992830;28;2321;-76
2023/09/25 11:29:05;;;;;;;;;;;;;;;13.25;76.94;100852.59;4998247;28;2417;-77
2023/09/25 11:31:56;;;;;;;;;;;;;;;13.24;76.69;100850.13;4990730;28;3491;-78
2023/09/25 11:34:48;;;;;;;;;;;;;;;13.25;76.71;100847.19;4994666;28;2272;-77
2023/09/25 11:37:40;;;;;;;;;;;;;;;13.24;76.64;100840.13;4993000;28;2323;-76
2023/09/25 11:40:32;;;;;;;;;;;;;;;13.25;76.47;100841.78;5005229;28;2445;-76
2023/09/25 11:43:25;;;;;;;;;;;;;;;13.26;76.56;100835.31;5003702;28;2300;-78
2023/09/25 11:46:17;;;;;;;;;;;;;;;13.26;76.60;100839.91;4996422;28;2261;-75
2023/09/25 11:49:09;;;;;;;;;;;;;;;13.26;76.67;100834.50;4994203;28;2278;-77
2023/09/25 11:52:01;;;;;;;;;;;;;;;13.26;76.66;100829.09;5001356;28;2323;-77
2023/09/25 11:54:53;;;;;;;;;;;;;;;13.26;76.57;100843.44;4992851;28;1700;-75
2023/09/25 11:57:45;;;;;;;;;;;;;;;13.26;76.79;100835.31;4999073;28;2353;-80
2023/09/25 12:00:37;;;;;;;;;;;;;;;13.28;76.54;100856.75;4996868;28;2627;-77
2023/09/25 12:03:29;;;;;;;;;;;;;;;13.26;76.49;100838.03;5002972;28;2203;-79
2023/09/25 12:06:24;;;;;;;;;;;;;;;13.27;76.73;100844.28;4990063;28;2182;-77
2023/09/25 12:09:16;;;;;;;;;;;;;;;13.27;76.78;100838.88;5001287;28;2482;-78
2023/09/25 12:12:08;;;;;;;;;;;;;;;13.28;76.66;100832.41;5001957;28;2210;-78
2023/09/25 12:15:02;;;;;;;;;;;;;;;13.28;76.58;100844.03;4999697;28;2096;-78
2023/09/25 12:17:54;;;;;;;;;;;;;;;13.28;76.81;100852.16;5004372;28;2317;-75
2023/09/25 12:20:46;;;;;;;;;;;;;;;13.29;76.50;100847.56;5000310;28;2119;-76
2023/09/25 12:23:38;;;;;;;;;;;;;;;13.28;76.91;100841.31;5000399;28;2163;-76
2023/09/25 12:26:30;;;;;;;;;;;;;;;13.29;77.03;100842.97;5003525;28;2222;-75
2023/09/25 12:29:28;;;;;;;;;;;;;;;13.29;76.93;100839.44;4994268;28;2264;-78
2023/09/25 12:32:20;;;;;;;;;;;;;;;13.29;76.86;100853.78;4990823;28;2514;-77
2023/09/25 12:35:14;;;;;;;;;;;;;;;13.30;76.71;100855.47;4998446;28;2199;-76
2023/09/25 12:38:06;;;;;;;;;;;;;;;13.29;76.80;100848.38;4993021;28;2248;-76
2023/09/25 12:40:58;;;;;;;;;;;;;;;13.30;77.24;100857.34;5005774;28;1855;-77
2023/09/25 12:43:50;;;;;;;;;;;;;;;13.29;77.13;100856.50;5005895;28;2203;-78
2023/09/25 12:46:42;;;;;;;;;;;;;;;13.31;77.49;100856.28;4994174;28;2330;-77
2023/09/25 12:49:34;;;;;;;;;;;;;;;13.30;77.40;100860.88;5000307;28;2449;-77
2023/09/25 12:52:25;;;;;;;;;;;;;;;13.31;77.40;100867.91;5004859;28;2129;-79
2023/09/25 12:55:17;;;;;;;;;;;;;;;13.32;77.39;100871.44;4995047;28;2134;-76
2023/09/25 12:58:09;;;;;;;;;;;;;;;13.32;77.41;100872.25;5003936;28;2281;-77
2023/09/25 13:01:01;;;;;;;;;;;;;;;13.31;77.31;100854.38;5000044;28;2061;-77
2023/09/25 13:03:53;;;;;;;;;;;;;;;13.33;77.23;100859.59;4997591;28;2344;-75
2023/09/25 13:06:45;;;;;;;;;;;;;;;13.32;77.55;100860.63;4999162;28;2107;-77
2023/09/25 13:09:36;;;;;;;;;;;;;;;13.32;77.49;100850.63;5003986;28;2100;-77
2023/09/25 13:12:27;;;;;;;;;;;;;;;13.32;77.42;100856.03;5004192;28;2313;-78
2023/09/25 13:15:20;;;;;;;;;;;;;;;13.32;77.54;100856.03;4989796;28;2345;-77
2023/09/25 13:18:12;;;;;;;;;;;;;;;13.33;77.59;100856.88;5003306;28;2056;-78
2023/09/25 13:21:04;;;;;;;;;;;;;;;13.33;77.51;100856.88;5002589;28;1775;-77
2023/09/25 13:23:56;;;;;;;;;;;;;;;13.33;77.74;100857.69;4995509;28;2296;-77
2023/09/25 13:26:48;;;;;;;;;;;;;;;13.34;77.83;100855.81;4999432;28;2326;-77
2023/09/25 13:29:40;;;;;;;;;;;;;;;13.35;77.46;100862.88;4993207;28;2385;-77
2023/09/25 13:32:32;;;;;;;;;;;;;;;13.33;77.68;100860.41;4993795;28;3998;-78
2023/09/25 13:35:24;;;;;;;;;;;;;;;13.33;77.50;100862.28;4993727;28;2781;-76
2023/09/25 13:38:16;;;;;;;;;;;;;;;13.34;77.42;100869.34;5003038;28;2662;-77
2023/09/25 13:41:07;;;;;;;;;;;;;;;13.35;77.27;100868.28;5001505;28;2216;-78
2023/09/25 13:43:59;;;;;;;;;;;;;;;13.35;77.23;100868.28;5001509;28;2356;-78
2023/09/25 13:46:54;;;;;;;;;;;;;;;13.35;77.41;100862.88;5006962;28;2072;-76
2023/09/25 13:49:46;;;;;;;;;;;;;;;13.34;77.17;100859.34;4994281;28;2257;-77
2023/09/25 13:52:38;;;;;;;;;;;;;;;13.36;77.48;100862.66;4999419;28;2225;-76
2023/09/25 13:55:29;;;;;;;;;;;;;;;13.36;77.33;100848.31;4998467;28;2138;-75
2023/09/25 13:58:21;;;;;;;;;;;;;;;13.35;77.33;100855.59;4994089;28;2224;-76
2023/09/25 14:01:13;;;;;;;;;;;;;;;13.36;77.43;100861.81;4999560;28;2091;-79
2023/09/25 14:04:06;;;;;;;;;;;;;;;13.37;77.32;100855.34;4991204;28;2250;-77
2023/09/25 14:06:57;;;;;;;;;;;;;;;13.37;77.17;100858.06;5008367;28;1381;-76
2023/09/25 14:09:49;;;;;;;;;;;;;;;13.37;77.31;100847.22;4997902;28;2093;-76
2023/09/25 14:12:40;;;;;;;;;;;;;;;13.38;77.33;100848.88;5005804;28;2506;-76
2023/09/25 14:15:32;;;;;;;;;;;;;;;13.37;77.52;100844.53;4994309;28;2009;-76
2023/09/25 14:18:26;;;;;;;;;;;;;;;13.38;77.35;100848.88;4997940;28;2210;-76
2023/09/25 14:21:20;;;;;;;;;;;;;;;13.38;77.52;100847.03;5001322;28;2175;-78
2023/09/25 14:24:11;;;;;;;;;;;;;;;13.38;77.29;100843.47;4999082;28;2269;-75
2023/09/25 14:27:03;;;;;;;;;;;;;;;13.38;77.55;100829.94;4993629;28;2121;-77
2023/09/25 14:29:55;;;;;;;;;;;;;;;13.37;77.26;100831.81;4999479;28;1829;-78
2023/09/25 14:32:47;;;;;;;;;;;;;;;13.38;77.36;100828.09;4991244;28;1997;-78
2023/09/25 14:35:39;;;;;;;;;;;;;;;13.38;77.26;100832.66;4995435;28;2374;-78
2023/09/25 14:38:31;;;;;;;;;;;;;;;13.38;77.38;100833.50;5001554;28;2378;-79
2023/09/25 14:41:23;;;;;;;;;;;;;;;13.38;77.33;100832.66;4997112;28;3451;-78
2023/09/25 14:44:15;;;;;;;;;;;;;;;13.39;77.60;100837.03;4990742;28;2192;-78
2023/09/25 14:47:07;;;;;;;;;;;;;;;13.39;77.28;100834.31;5007134;28;2095;-77
2023/09/25 14:49:59;;;;;;;;;;;;;;;13.39;77.48;100835.13;4996268;28;2100;-78
2023/09/25 14:52:51;;;;;;;;;;;;;;;13.39;77.34;100831.59;5000982;28;1977;-78
2023/09/25 14:55:43;;;;;;;;;;;;;;;13.39;77.49;100827.00;4992718;28;1989;-78